sensor_id;sensor_type;location;lat;lon;timestamp;P1;durP1;ratioP1;P2;durP2;ratioP2
46875;SDS011;32866;50.160;14.768;2024-02-15T00:00:12;2.97;;;2.77;;
46875;SDS011;32866;50.160;14.768;2024-02-15T00:02:38;2.47;;;2.37;;
46875;SDS011;32866;50.160;14.768;2024-02-15T00:05:04;2.95;;;2.85;;
46875;SDS011;32866;50.160;14.768;2024-02-15T00:07:30;2.50;;;2.40;;
46875;SDS011;32866;50.160;14.768;2024-02-15T00:09:56;3.40;;;3.25;;
46875;SDS011;32866;50.160;14.768;2024-02-15T00:12:24;2.80;;;2.70;;
46875;SDS011;32866;50.160;14.768;2024-02-15T00:14:50;3.55;;;3.35;;
46875;SDS011;32866;50.160;14.768;2024-02-15T00:17:16;3.38;;;3.13;;
46875;SDS011;32866;50.160;14.768;2024-02-15T00:19:43;3.73;;;3.53;;
46875;SDS011;32866;50.160;14.768;2024-02-15T00:22:09;3.15;;;3.05;;
46875;SDS011;32866;50.160;14.768;2024-02-15T00:24:38;3.78;;;3.50;;
46875;SDS011;32866;50.160;14.768;2024-02-15T00:27:04;3.57;;;3.40;;
46875;SDS011;32866;50.160;14.768;2024-02-15T00:29:30;3.30;;;3.20;;
46875;SDS011;32866;50.160;14.768;2024-02-15T00:31:57;5.17;;;4.00;;
46875;SDS011;32866;50.160;14.768;2024-02-15T00:34:23;3.47;;;3.38;;
46875;SDS011;32866;50.160;14.768;2024-02-15T00:36:51;3.00;;;2.90;;
46875;SDS011;32866;50.160;14.768;2024-02-15T00:39:17;4.07;;;3.80;;
46875;SDS011;32866;50.160;14.768;2024-02-15T00:41:44;3.80;;;3.60;;
46875;SDS011;32866;50.160;14.768;2024-02-15T00:44:11;4.37;;;4.07;;
46875;SDS011;32866;50.160;14.768;2024-02-15T00:49:03;3.53;;;3.33;;
46875;SDS011;32866;50.160;14.768;2024-02-15T00:51:32;4.00;;;3.80;;
46875;SDS011;32866;50.160;14.768;2024-02-15T00:54:01;4.13;;;3.93;;
46875;SDS011;32866;50.160;14.768;2024-02-15T00:56:28;3.60;;;3.43;;
46875;SDS011;32866;50.160;14.768;2024-02-15T00:58:55;4.47;;;4.17;;
46875;SDS011;32866;50.160;14.768;2024-02-15T01:01:21;3.47;;;3.38;;
46875;SDS011;32866;50.160;14.768;2024-02-15T01:03:47;4.28;;;4.07;;
46875;SDS011;32866;50.160;14.768;2024-02-15T01:06:13;3.35;;;3.25;;
46875;SDS011;32866;50.160;14.768;2024-02-15T01:08:39;3.60;;;3.50;;
46875;SDS011;32866;50.160;14.768;2024-02-15T01:11:05;3.33;;;3.22;;
46875;SDS011;32866;50.160;14.768;2024-02-15T01:15:57;3.47;;;3.30;;
46875;SDS011;32866;50.160;14.768;2024-02-15T01:19:41;3.90;;;3.70;;
46875;SDS011;32866;50.160;14.768;2024-02-15T01:22:07;3.20;;;3.08;;
46875;SDS011;32866;50.160;14.768;2024-02-15T01:24:33;4.07;;;3.88;;
46875;SDS011;32866;50.160;14.768;2024-02-15T01:26:59;4.32;;;4.13;;
46875;SDS011;32866;50.160;14.768;2024-02-15T01:29:25;4.18;;;3.97;;
46875;SDS011;32866;50.160;14.768;2024-02-15T01:31:52;3.50;;;3.40;;
46875;SDS011;32866;50.160;14.768;2024-02-15T01:36:43;3.67;;;3.47;;
46875;SDS011;32866;50.160;14.768;2024-02-15T01:39:09;3.45;;;3.35;;
46875;SDS011;32866;50.160;14.768;2024-02-15T01:41:35;4.22;;;4.03;;
46875;SDS011;32866;50.160;14.768;2024-02-15T01:44:02;5.10;;;4.57;;
46875;SDS011;32866;50.160;14.768;2024-02-15T01:46:28;3.60;;;3.50;;
46875;SDS011;32866;50.160;14.768;2024-02-15T01:48:55;3.90;;;3.70;;
46875;SDS011;32866;50.160;14.768;2024-02-15T01:51:22;4.27;;;4.07;;
46875;SDS011;32866;50.160;14.768;2024-02-15T01:53:49;3.30;;;3.20;;
46875;SDS011;32866;50.160;14.768;2024-02-15T01:56:15;4.00;;;3.80;;
46875;SDS011;32866;50.160;14.768;2024-02-15T01:58:42;3.90;;;3.70;;
46875;SDS011;32866;50.160;14.768;2024-02-15T02:01:11;4.57;;;4.37;;
46875;SDS011;32866;50.160;14.768;2024-02-15T02:03:39;3.73;;;3.60;;
46875;SDS011;32866;50.160;14.768;2024-02-15T02:06:05;3.90;;;3.60;;
46875;SDS011;32866;50.160;14.768;2024-02-15T02:08:31;5.18;;;4.88;;
46875;SDS011;32866;50.160;14.768;2024-02-15T02:10:57;3.90;;;3.67;;
46875;SDS011;32866;50.160;14.768;2024-02-15T02:13:23;4.43;;;4.22;;
46875;SDS011;32866;50.160;14.768;2024-02-15T02:15:49;4.22;;;3.92;;
46875;SDS011;32866;50.160;14.768;2024-02-15T02:20:41;3.83;;;3.63;;
46875;SDS011;32866;50.160;14.768;2024-02-15T02:23:07;3.67;;;3.47;;
46875;SDS011;32866;50.160;14.768;2024-02-15T02:25:38;3.37;;;3.27;;
46875;SDS011;32866;50.160;14.768;2024-02-15T02:28:08;4.23;;;4.03;;
46875;SDS011;32866;50.160;14.768;2024-02-15T02:30:34;4.00;;;3.80;;
46875;SDS011;32866;50.160;14.768;2024-02-15T02:33:00;5.05;;;4.78;;
46875;SDS011;32866;50.160;14.768;2024-02-15T02:35:27;4.63;;;4.23;;
46875;SDS011;32866;50.160;14.768;2024-02-15T02:37:56;4.90;;;4.70;;
46875;SDS011;32866;50.160;14.768;2024-02-15T02:40:22;3.50;;;3.40;;
46875;SDS011;32866;50.160;14.768;2024-02-15T02:42:52;4.13;;;3.92;;
46875;SDS011;32866;50.160;14.768;2024-02-15T02:45:21;4.63;;;4.40;;
46875;SDS011;32866;50.160;14.768;2024-02-15T02:47:53;4.07;;;3.77;;
46875;SDS011;32866;50.160;14.768;2024-02-15T02:50:20;4.13;;;3.93;;
46875;SDS011;32866;50.160;14.768;2024-02-15T02:52:48;3.90;;;3.70;;
46875;SDS011;32866;50.160;14.768;2024-02-15T02:55:14;4.30;;;4.10;;
46875;SDS011;32866;50.160;14.768;2024-02-15T02:57:41;3.57;;;3.40;;
46875;SDS011;32866;50.160;14.768;2024-02-15T03:00:09;3.57;;;3.37;;
46875;SDS011;32866;50.160;14.768;2024-02-15T03:02:43;4.10;;;3.90;;
46875;SDS011;32866;50.160;14.768;2024-02-15T03:05:10;4.73;;;4.53;;
46875;SDS011;32866;50.160;14.768;2024-02-15T03:07:37;3.57;;;3.47;;
46875;SDS011;32866;50.160;14.768;2024-02-15T03:10:03;4.17;;;3.97;;
46875;SDS011;32866;50.160;14.768;2024-02-15T03:12:30;4.50;;;4.30;;
46875;SDS011;32866;50.160;14.768;2024-02-15T03:14:56;4.60;;;4.40;;
46875;SDS011;32866;50.160;14.768;2024-02-15T03:17:23;4.30;;;4.10;;
46875;SDS011;32866;50.160;14.768;2024-02-15T03:19:49;4.70;;;4.40;;
46875;SDS011;32866;50.160;14.768;2024-02-15T03:22:15;5.75;;;5.40;;
46875;SDS011;32866;50.160;14.768;2024-02-15T03:24:41;5.35;;;5.05;;
46875;SDS011;32866;50.160;14.768;2024-02-15T03:27:08;4.37;;;4.07;;
46875;SDS011;32866;50.160;14.768;2024-02-15T03:29:36;5.13;;;4.73;;
46875;SDS011;32866;50.160;14.768;2024-02-15T03:32:02;6.97;;;4.82;;
46875;SDS011;32866;50.160;14.768;2024-02-15T03:34:30;4.23;;;4.03;;
46875;SDS011;32866;50.160;14.768;2024-02-15T03:36:57;5.07;;;4.77;;
46875;SDS011;32866;50.160;14.768;2024-02-15T03:39:26;4.30;;;4.10;;
46875;SDS011;32866;50.160;14.768;2024-02-15T03:41:53;5.47;;;5.07;;
46875;SDS011;32866;50.160;14.768;2024-02-15T03:44:19;4.65;;;4.40;;
46875;SDS011;32866;50.160;14.768;2024-02-15T03:46:45;4.90;;;4.70;;
46875;SDS011;32866;50.160;14.768;2024-02-15T03:49:17;4.20;;;4.00;;
46875;SDS011;32866;50.160;14.768;2024-02-15T03:51:43;4.13;;;3.93;;
46875;SDS011;32866;50.160;14.768;2024-02-15T03:54:13;4.03;;;3.83;;
46875;SDS011;32866;50.160;14.768;2024-02-15T03:56:46;4.50;;;4.30;;
46875;SDS011;32866;50.160;14.768;2024-02-15T03:59:18;4.60;;;4.40;;
46875;SDS011;32866;50.160;14.768;2024-02-15T04:01:55;5.37;;;5.07;;
46875;SDS011;32866;50.160;14.768;2024-02-15T04:04:22;4.73;;;4.43;;
46875;SDS011;32866;50.160;14.768;2024-02-15T04:06:49;3.95;;;3.75;;
46875;SDS011;32866;50.160;14.768;2024-02-15T04:09:15;4.47;;;4.17;;
46875;SDS011;32866;50.160;14.768;2024-02-15T04:11:46;6.67;;;6.20;;
46875;SDS011;32866;50.160;14.768;2024-02-15T04:14:16;5.77;;;5.47;;
46875;SDS011;32866;50.160;14.768;2024-02-15T04:16:44;5.17;;;4.70;;
46875;SDS011;32866;50.160;14.768;2024-02-15T04:19:10;4.93;;;4.73;;
46875;SDS011;32866;50.160;14.768;2024-02-15T04:21:37;4.73;;;4.53;;
46875;SDS011;32866;50.160;14.768;2024-02-15T04:24:04;5.63;;;5.33;;
46875;SDS011;32866;50.160;14.768;2024-02-15T04:26:31;4.23;;;4.03;;
46875;SDS011;32866;50.160;14.768;2024-02-15T04:28:58;4.77;;;4.57;;
46875;SDS011;32866;50.160;14.768;2024-02-15T04:31:24;4.37;;;4.17;;
46875;SDS011;32866;50.160;14.768;2024-02-15T04:33:52;5.33;;;5.03;;
46875;SDS011;32866;50.160;14.768;2024-02-15T04:36:19;4.87;;;4.67;;
46875;SDS011;32866;50.160;14.768;2024-02-15T04:38:49;4.80;;;4.50;;
46875;SDS011;32866;50.160;14.768;2024-02-15T04:41:16;5.00;;;4.70;;
46875;SDS011;32866;50.160;14.768;2024-02-15T04:43:48;4.60;;;4.33;;
46875;SDS011;32866;50.160;14.768;2024-02-15T04:46:19;5.03;;;4.83;;
46875;SDS011;32866;50.160;14.768;2024-02-15T04:48:48;5.63;;;5.33;;
46875;SDS011;32866;50.160;14.768;2024-02-15T04:51:17;4.73;;;4.53;;
46875;SDS011;32866;50.160;14.768;2024-02-15T04:53:45;6.60;;;5.63;;
46875;SDS011;32866;50.160;14.768;2024-02-15T04:56:12;6.73;;;6.20;;
46875;SDS011;32866;50.160;14.768;2024-02-15T04:58:42;6.40;;;6.00;;
46875;SDS011;32866;50.160;14.768;2024-02-15T05:01:13;5.77;;;5.47;;
46875;SDS011;32866;50.160;14.768;2024-02-15T05:03:41;3.63;;;3.53;;
46875;SDS011;32866;50.160;14.768;2024-02-15T05:06:11;6.20;;;5.80;;
46875;SDS011;32866;50.160;14.768;2024-02-15T05:08:38;6.27;;;5.93;;
46875;SDS011;32866;50.160;14.768;2024-02-15T05:11:11;4.83;;;4.60;;
46875;SDS011;32866;50.160;14.768;2024-02-15T05:13:43;5.73;;;5.17;;
46875;SDS011;32866;50.160;14.768;2024-02-15T05:16:10;8.20;;;6.60;;
46875;SDS011;32866;50.160;14.768;2024-02-15T05:18:37;4.30;;;4.10;;
46875;SDS011;32866;50.160;14.768;2024-02-15T05:21:05;5.33;;;4.93;;
46875;SDS011;32866;50.160;14.768;2024-02-15T05:23:35;5.67;;;5.37;;
46875;SDS011;32866;50.160;14.768;2024-02-15T05:26:05;5.23;;;4.93;;
46875;SDS011;32866;50.160;14.768;2024-02-15T05:28:32;5.63;;;5.27;;
46875;SDS011;32866;50.160;14.768;2024-02-15T05:31:14;5.10;;;4.90;;
46875;SDS011;32866;50.160;14.768;2024-02-15T05:33:52;6.20;;;5.85;;
46875;SDS011;32866;50.160;14.768;2024-02-15T05:36:20;4.73;;;4.50;;
46875;SDS011;32866;50.160;14.768;2024-02-15T05:38:48;5.83;;;5.53;;
46875;SDS011;32866;50.160;14.768;2024-02-15T05:41:17;5.70;;;5.20;;
46875;SDS011;32866;50.160;14.768;2024-02-15T05:43:43;4.50;;;4.30;;
46875;SDS011;32866;50.160;14.768;2024-02-15T05:46:09;5.05;;;4.82;;
46875;SDS011;32866;50.160;14.768;2024-02-15T05:48:36;5.63;;;5.33;;
46875;SDS011;32866;50.160;14.768;2024-02-15T05:51:03;6.50;;;6.10;;
46875;SDS011;32866;50.160;14.768;2024-02-15T05:53:30;5.83;;;5.33;;
46875;SDS011;32866;50.160;14.768;2024-02-15T05:55:56;10.43;;;5.93;;
46875;SDS011;32866;50.160;14.768;2024-02-15T05:58:25;5.87;;;5.53;;
46875;SDS011;32866;50.160;14.768;2024-02-15T06:00:51;5.75;;;5.20;;
46875;SDS011;32866;50.160;14.768;2024-02-15T06:03:18;6.07;;;5.77;;
46875;SDS011;32866;50.160;14.768;2024-02-15T06:05:48;5.30;;;5.00;;
46875;SDS011;32866;50.160;14.768;2024-02-15T06:08:14;6.13;;;5.43;;
46875;SDS011;32866;50.160;14.768;2024-02-15T06:10:41;6.07;;;5.57;;
46875;SDS011;32866;50.160;14.768;2024-02-15T06:13:06;5.47;;;5.18;;
46875;SDS011;32866;50.160;14.768;2024-02-15T06:15:36;6.03;;;5.53;;
46875;SDS011;32866;50.160;14.768;2024-02-15T06:18:03;6.60;;;6.10;;
46875;SDS011;32866;50.160;14.768;2024-02-15T06:20:34;4.70;;;4.50;;
46875;SDS011;32866;50.160;14.768;2024-02-15T06:23:01;4.93;;;4.53;;
46875;SDS011;32866;50.160;14.768;2024-02-15T06:25:31;5.27;;;4.77;;
46875;SDS011;32866;50.160;14.768;2024-02-15T06:27:57;5.27;;;4.83;;
46875;SDS011;32866;50.160;14.768;2024-02-15T06:30:41;6.00;;;5.60;;
46875;SDS011;32866;50.160;14.768;2024-02-15T06:33:26;5.37;;;5.07;;
46875;SDS011;32866;50.160;14.768;2024-02-15T06:36:10;6.63;;;6.23;;
46875;SDS011;32866;50.160;14.768;2024-02-15T06:38:54;5.10;;;4.80;;
46875;SDS011;32866;50.160;14.768;2024-02-15T06:41:38;5.30;;;5.00;;
46875;SDS011;32866;50.160;14.768;2024-02-15T06:44:05;6.37;;;5.70;;
46875;SDS011;32866;50.160;14.768;2024-02-15T06:46:31;6.25;;;5.90;;
46875;SDS011;32866;50.160;14.768;2024-02-15T06:48:57;5.40;;;5.00;;
46875;SDS011;32866;50.160;14.768;2024-02-15T06:53:50;5.53;;;5.10;;
46875;SDS011;32866;50.160;14.768;2024-02-15T06:56:17;10.43;;;6.17;;
46875;SDS011;32866;50.160;14.768;2024-02-15T06:58:46;6.63;;;6.33;;
46875;SDS011;32866;50.160;14.768;2024-02-15T07:01:14;5.33;;;5.07;;
46875;SDS011;32866;50.160;14.768;2024-02-15T07:03:44;6.50;;;5.90;;
46875;SDS011;32866;50.160;14.768;2024-02-15T07:06:11;6.93;;;6.17;;
46875;SDS011;32866;50.160;14.768;2024-02-15T07:08:39;6.37;;;5.87;;
46875;SDS011;32866;50.160;14.768;2024-02-15T07:11:06;6.33;;;5.77;;
46875;SDS011;32866;50.160;14.768;2024-02-15T07:13:35;6.03;;;5.73;;
46875;SDS011;32866;50.160;14.768;2024-02-15T07:16:06;6.70;;;6.30;;
46875;SDS011;32866;50.160;14.768;2024-02-15T07:18:35;5.87;;;5.57;;
46875;SDS011;32866;50.160;14.768;2024-02-15T07:21:01;7.05;;;6.35;;
46875;SDS011;32866;50.160;14.768;2024-02-15T07:23:29;5.90;;;5.60;;
46875;SDS011;32866;50.160;14.768;2024-02-15T07:25:55;6.50;;;5.78;;
46875;SDS011;32866;50.160;14.768;2024-02-15T07:28:21;5.78;;;5.47;;
46875;SDS011;32866;50.160;14.768;2024-02-15T07:30:47;5.75;;;5.43;;
46875;SDS011;32866;50.160;14.768;2024-02-15T07:33:16;5.80;;;4.87;;
46875;SDS011;32866;50.160;14.768;2024-02-15T07:35:43;4.53;;;4.20;;
46875;SDS011;32866;50.160;14.768;2024-02-15T07:38:10;5.93;;;5.53;;
46875;SDS011;32866;50.160;14.768;2024-02-15T07:40:36;4.80;;;4.60;;
46875;SDS011;32866;50.160;14.768;2024-02-15T07:43:05;4.93;;;4.57;;
46875;SDS011;32866;50.160;14.768;2024-02-15T07:45:31;6.60;;;5.20;;
46875;SDS011;32866;50.160;14.768;2024-02-15T07:48:01;5.33;;;5.03;;
46875;SDS011;32866;50.160;14.768;2024-02-15T07:50:27;6.20;;;5.70;;
46875;SDS011;32866;50.160;14.768;2024-02-15T07:52:54;6.23;;;5.83;;
46875;SDS011;32866;50.160;14.768;2024-02-15T07:55:20;5.22;;;4.97;;
46875;SDS011;32866;50.160;14.768;2024-02-15T07:57:46;5.60;;;5.20;;
46875;SDS011;32866;50.160;14.768;2024-02-15T08:00:13;4.32;;;4.13;;
46875;SDS011;32866;50.160;14.768;2024-02-15T08:02:42;4.80;;;4.40;;
46875;SDS011;32866;50.160;14.768;2024-02-15T08:05:09;5.95;;;5.45;;
46875;SDS011;32866;50.160;14.768;2024-02-15T08:07:45;5.78;;;5.28;;
46875;SDS011;32866;50.160;14.768;2024-02-15T08:10:12;4.65;;;4.30;;
46875;SDS011;32866;50.160;14.768;2024-02-15T08:12:40;4.05;;;3.72;;
46875;SDS011;32866;50.160;14.768;2024-02-15T08:15:09;3.63;;;3.42;;
46875;SDS011;32866;50.160;14.768;2024-02-15T08:17:43;4.05;;;3.75;;
46875;SDS011;32866;50.160;14.768;2024-02-15T08:20:14;4.32;;;4.13;;
46875;SDS011;32866;50.160;14.768;2024-02-15T08:22:47;4.72;;;4.40;;
46875;SDS011;32866;50.160;14.768;2024-02-15T08:25:13;3.38;;;3.17;;
46875;SDS011;32866;50.160;14.768;2024-02-15T08:27:46;4.50;;;4.30;;
46875;SDS011;32866;50.160;14.768;2024-02-15T08:30:15;3.88;;;3.58;;
46875;SDS011;32866;50.160;14.768;2024-02-15T08:32:42;5.13;;;4.75;;
46875;SDS011;32866;50.160;14.768;2024-02-15T08:35:09;6.03;;;4.05;;
46875;SDS011;32866;50.160;14.768;2024-02-15T08:37:36;4.75;;;4.45;;
46875;SDS011;32866;50.160;14.768;2024-02-15T08:40:04;4.85;;;4.53;;
46875;SDS011;32866;50.160;14.768;2024-02-15T08:42:37;4.40;;;4.15;;
46875;SDS011;32866;50.160;14.768;2024-02-15T08:45:06;5.05;;;4.50;;
46875;SDS011;32866;50.160;14.768;2024-02-15T08:47:35;3.63;;;3.42;;
46875;SDS011;32866;50.160;14.768;2024-02-15T08:50:03;3.58;;;3.38;;
46875;SDS011;32866;50.160;14.768;2024-02-15T08:52:30;2.90;;;2.80;;
46875;SDS011;32866;50.160;14.768;2024-02-15T08:54:56;3.38;;;3.17;;
46875;SDS011;32866;50.160;14.768;2024-02-15T08:57:24;2.97;;;2.88;;
46875;SDS011;32866;50.160;14.768;2024-02-15T09:02:20;4.80;;;3.85;;
46875;SDS011;32866;50.160;14.768;2024-02-15T09:07:12;3.13;;;2.92;;
46875;SDS011;32866;50.160;14.768;2024-02-15T09:09:38;4.97;;;3.15;;
46875;SDS011;32866;50.160;14.768;2024-02-15T09:12:04;2.90;;;2.70;;
46875;SDS011;32866;50.160;14.768;2024-02-15T09:14:34;5.72;;;3.50;;
46875;SDS011;32866;50.160;14.768;2024-02-15T09:17:04;2.97;;;2.88;;
46875;SDS011;32866;50.160;14.768;2024-02-15T09:19:33;2.72;;;2.63;;
46875;SDS011;32866;50.160;14.768;2024-02-15T09:22:00;4.72;;;3.78;;
46875;SDS011;32866;50.160;14.768;2024-02-15T09:24:32;3.00;;;2.90;;
46875;SDS011;32866;50.160;14.768;2024-02-15T09:27:02;2.67;;;2.58;;
46875;SDS011;32866;50.160;14.768;2024-02-15T09:29:28;3.15;;;2.97;;
46875;SDS011;32866;50.160;14.768;2024-02-15T09:31:55;3.13;;;2.92;;
46875;SDS011;32866;50.160;14.768;2024-02-15T09:34:23;2.92;;;2.72;;
46875;SDS011;32866;50.160;14.768;2024-02-15T09:36:49;2.88;;;2.78;;
46875;SDS011;32866;50.160;14.768;2024-02-15T09:39:15;3.10;;;2.90;;
46875;SDS011;32866;50.160;14.768;2024-02-15T09:41:43;2.88;;;2.67;;
46875;SDS011;32866;50.160;14.768;2024-02-15T09:44:09;2.78;;;2.67;;
46875;SDS011;32866;50.160;14.768;2024-02-15T09:46:36;2.95;;;2.85;;
46875;SDS011;32866;50.160;14.768;2024-02-15T09:49:11;2.92;;;2.83;;
46875;SDS011;32866;50.160;14.768;2024-02-15T09:51:37;3.25;;;3.15;;
46875;SDS011;32866;50.160;14.768;2024-02-15T09:54:05;3.13;;;3.03;;
46875;SDS011;32866;50.160;14.768;2024-02-15T09:56:34;3.08;;;2.97;;
46875;SDS011;32866;50.160;14.768;2024-02-15T09:59:01;3.85;;;3.58;;
46875;SDS011;32866;50.160;14.768;2024-02-15T10:01:27;3.58;;;3.38;;
46875;SDS011;32866;50.160;14.768;2024-02-15T10:03:57;3.53;;;3.33;;
46875;SDS011;32866;50.160;14.768;2024-02-15T10:06:24;2.95;;;2.85;;
46875;SDS011;32866;50.160;14.768;2024-02-15T10:08:52;3.30;;;3.10;;
46875;SDS011;32866;50.160;14.768;2024-02-15T10:11:19;4.20;;;3.95;;
46875;SDS011;32866;50.160;14.768;2024-02-15T10:13:46;3.05;;;2.85;;
46875;SDS011;32866;50.160;14.768;2024-02-15T10:16:16;3.47;;;3.28;;
46875;SDS011;32866;50.160;14.768;2024-02-15T10:18:47;3.20;;;3.10;;
46875;SDS011;32866;50.160;14.768;2024-02-15T10:21:26;3.00;;;2.80;;
46875;SDS011;32866;50.160;14.768;2024-02-15T10:24:06;3.20;;;3.00;;
46875;SDS011;32866;50.160;14.768;2024-02-15T10:26:33;2.70;;;2.60;;
46875;SDS011;32866;50.160;14.768;2024-02-15T10:29:10;2.15;;;2.05;;
46875;SDS011;32866;50.160;14.768;2024-02-15T10:31:38;2.72;;;2.63;;
46875;SDS011;32866;50.160;14.768;2024-02-15T10:34:06;3.28;;;2.85;;
46875;SDS011;32866;50.160;14.768;2024-02-15T10:36:33;3.00;;;2.90;;
46875;SDS011;32866;50.160;14.768;2024-02-15T10:39:12;2.70;;;2.60;;
46875;SDS011;32866;50.160;14.768;2024-02-15T10:41:43;2.80;;;2.70;;
46875;SDS011;32866;50.160;14.768;2024-02-15T10:44:12;2.70;;;2.60;;
46875;SDS011;32866;50.160;14.768;2024-02-15T10:46:44;3.42;;;3.22;;
46875;SDS011;32866;50.160;14.768;2024-02-15T10:49:12;2.47;;;2.38;;
46875;SDS011;32866;50.160;14.768;2024-02-15T10:51:43;2.50;;;2.40;;
46875;SDS011;32866;50.160;14.768;2024-02-15T10:54:11;3.53;;;3.33;;
46875;SDS011;32866;50.160;14.768;2024-02-15T10:56:42;2.70;;;2.60;;
46875;SDS011;32866;50.160;14.768;2024-02-15T10:59:16;3.03;;;2.92;;
46875;SDS011;32866;50.160;14.768;2024-02-15T11:01:47;2.67;;;2.58;;
46875;SDS011;32866;50.160;14.768;2024-02-15T11:04:20;2.42;;;2.33;;
46875;SDS011;32866;50.160;14.768;2024-02-15T11:06:50;4.72;;;4.45;;
46875;SDS011;32866;50.160;14.768;2024-02-15T11:09:21;2.95;;;2.75;;
46875;SDS011;32866;50.160;14.768;2024-02-15T11:11:48;3.40;;;3.20;;
46875;SDS011;32866;50.160;14.768;2024-02-15T11:16:55;3.00;;;2.83;;
46875;SDS011;32866;50.160;14.768;2024-02-15T11:22:12;2.97;;;2.88;;
46875;SDS011;32866;50.160;14.768;2024-02-15T11:24:48;4.25;;;4.00;;
46875;SDS011;32866;50.160;14.768;2024-02-15T11:27:24;3.17;;;3.08;;
46875;SDS011;32866;50.160;14.768;2024-02-15T11:29:54;3.97;;;3.78;;
46875;SDS011;32866;50.160;14.768;2024-02-15T11:32:47;3.05;;;2.95;;
46875;SDS011;32866;50.160;14.768;2024-02-15T11:35:19;2.92;;;2.83;;
46875;SDS011;32866;50.160;14.768;2024-02-15T11:43:45;2.72;;;2.53;;
46875;SDS011;32866;50.160;14.768;2024-02-15T11:46:17;3.10;;;3.00;;
46875;SDS011;32866;50.160;14.768;2024-02-15T11:48:45;2.85;;;2.75;;
46875;SDS011;32866;50.160;14.768;2024-02-15T11:56:32;3.38;;;3.28;;
46875;SDS011;32866;50.160;14.768;2024-02-15T11:59:17;3.15;;;3.05;;
46875;SDS011;32866;50.160;14.768;2024-02-15T12:01:58;3.58;;;3.47;;
46875;SDS011;32866;50.160;14.768;2024-02-15T12:04:43;3.55;;;3.42;;
46875;SDS011;32866;50.160;14.768;2024-02-15T12:07:28;4.10;;;3.80;;
46875;SDS011;32866;50.160;14.768;2024-02-15T12:10:16;3.22;;;3.13;;
46875;SDS011;32866;50.160;14.768;2024-02-15T12:13:01;3.20;;;3.10;;
46875;SDS011;32866;50.160;14.768;2024-02-15T12:15:56;2.80;;;2.70;;
46875;SDS011;32866;50.160;14.768;2024-02-15T12:18:42;2.47;;;2.38;;
46875;SDS011;32866;50.160;14.768;2024-02-15T12:21:08;3.30;;;3.10;;
46875;SDS011;32866;50.160;14.768;2024-02-15T12:23:38;6.93;;;3.60;;
46875;SDS011;32866;50.160;14.768;2024-02-15T12:26:04;2.95;;;2.85;;
46875;SDS011;32866;50.160;14.768;2024-02-15T12:28:30;3.83;;;3.53;;
46875;SDS011;32866;50.160;14.768;2024-02-15T12:30:57;2.65;;;2.55;;
46875;SDS011;32866;50.160;14.768;2024-02-15T12:35:49;2.85;;;2.65;;
46875;SDS011;32866;50.160;14.768;2024-02-15T12:38:16;3.88;;;3.67;;
46875;SDS011;32866;50.160;14.768;2024-02-15T12:40:42;3.42;;;3.22;;
46875;SDS011;32866;50.160;14.768;2024-02-15T12:43:10;2.97;;;2.88;;
46875;SDS011;32866;50.160;14.768;2024-02-15T12:45:38;3.78;;;3.58;;
46875;SDS011;32866;50.160;14.768;2024-02-15T12:48:07;2.58;;;2.47;;
46875;SDS011;32866;50.160;14.768;2024-02-15T12:50:34;4.07;;;3.80;;
46875;SDS011;32866;50.160;14.768;2024-02-15T12:53:01;3.15;;;3.03;;
46875;SDS011;32866;50.160;14.768;2024-02-15T12:55:28;5.15;;;4.45;;
46875;SDS011;32866;50.160;14.768;2024-02-15T12:57:56;3.85;;;3.63;;
46875;SDS011;32866;50.160;14.768;2024-02-15T13:00:23;3.30;;;3.10;;
46875;SDS011;32866;50.160;14.768;2024-02-15T13:03:02;5.65;;;4.03;;
46875;SDS011;32866;50.160;14.768;2024-02-15T13:05:29;3.15;;;2.95;;
46875;SDS011;32866;50.160;14.768;2024-02-15T13:07:57;3.50;;;3.30;;
46875;SDS011;32866;50.160;14.768;2024-02-15T13:10:23;2.83;;;2.72;;
46875;SDS011;32866;50.160;14.768;2024-02-15T13:12:52;3.47;;;3.28;;
46875;SDS011;32866;50.160;14.768;2024-02-15T13:15:18;3.13;;;3.03;;
46875;SDS011;32866;50.160;14.768;2024-02-15T13:17:47;3.42;;;3.25;;
46875;SDS011;32866;50.160;14.768;2024-02-15T13:20:17;4.57;;;4.28;;
46875;SDS011;32866;50.160;14.768;2024-02-15T13:22:46;4.43;;;4.13;;
46875;SDS011;32866;50.160;14.768;2024-02-15T13:25:15;3.38;;;3.17;;
46875;SDS011;32866;50.160;14.768;2024-02-15T13:27:46;2.95;;;2.85;;
46875;SDS011;32866;50.160;14.768;2024-02-15T13:32:39;3.25;;;3.05;;
46875;SDS011;32866;50.160;14.768;2024-02-15T13:35:09;3.58;;;3.38;;
46875;SDS011;32866;50.160;14.768;2024-02-15T13:37:47;2.85;;;2.75;;
46875;SDS011;32866;50.160;14.768;2024-02-15T13:40:15;4.20;;;4.00;;
46875;SDS011;32866;50.160;14.768;2024-02-15T13:42:42;3.55;;;3.45;;
46875;SDS011;32866;50.160;14.768;2024-02-15T13:45:15;4.18;;;3.88;;
46875;SDS011;32866;50.160;14.768;2024-02-15T13:47:56;4.25;;;4.05;;
46875;SDS011;32866;50.160;14.768;2024-02-15T13:50:22;3.45;;;3.25;;
46875;SDS011;32866;50.160;14.768;2024-02-15T13:52:49;3.50;;;3.30;;
46875;SDS011;32866;50.160;14.768;2024-02-15T13:55:16;4.72;;;4.45;;
46875;SDS011;32866;50.160;14.768;2024-02-15T13:57:44;4.47;;;4.18;;
46875;SDS011;32866;50.160;14.768;2024-02-15T14:00:13;3.72;;;3.58;;
46875;SDS011;32866;50.160;14.768;2024-02-15T14:02:50;4.10;;;3.90;;
46875;SDS011;32866;50.160;14.768;2024-02-15T14:05:21;4.18;;;3.97;;
46875;SDS011;32866;50.160;14.768;2024-02-15T14:07:50;6.63;;;4.88;;
46875;SDS011;32866;50.160;14.768;2024-02-15T14:10:21;4.53;;;4.25;;
46875;SDS011;32866;50.160;14.768;2024-02-15T14:12:52;4.90;;;4.50;;
46875;SDS011;32866;50.160;14.768;2024-02-15T14:15:27;4.57;;;4.38;;
46875;SDS011;32866;50.160;14.768;2024-02-15T14:17:54;3.40;;;3.30;;
46875;SDS011;32866;50.160;14.768;2024-02-15T14:20:21;3.83;;;3.47;;
46875;SDS011;32866;50.160;14.768;2024-02-15T14:22:48;4.00;;;3.75;;
46875;SDS011;32866;50.160;14.768;2024-02-15T14:25:21;4.23;;;3.93;;
46875;SDS011;32866;50.160;14.768;2024-02-15T14:27:48;4.40;;;4.00;;
46875;SDS011;32866;50.160;14.768;2024-02-15T14:30:14;4.55;;;4.25;;
46875;SDS011;32866;50.160;14.768;2024-02-15T14:32:58;6.55;;;2.70;;
46875;SDS011;32866;50.160;14.768;2024-02-15T14:35:31;3.90;;;3.70;;
46875;SDS011;32866;50.160;14.768;2024-02-15T14:38:03;3.78;;;3.58;;
46875;SDS011;32866;50.160;14.768;2024-02-15T14:40:35;3.63;;;3.42;;
46875;SDS011;32866;50.160;14.768;2024-02-15T14:43:03;3.28;;;3.17;;
46875;SDS011;32866;50.160;14.768;2024-02-15T14:45:33;4.00;;;3.80;;
46875;SDS011;32866;50.160;14.768;2024-02-15T14:48:00;3.92;;;3.70;;
46875;SDS011;32866;50.160;14.768;2024-02-15T14:50:27;3.92;;;3.72;;
46875;SDS011;32866;50.160;14.768;2024-02-15T14:52:52;3.72;;;3.42;;
46875;SDS011;32866;50.160;14.768;2024-02-15T14:55:19;4.35;;;4.15;;
46875;SDS011;32866;50.160;14.768;2024-02-15T14:57:46;4.20;;;4.00;;
46875;SDS011;32866;50.160;14.768;2024-02-15T15:00:12;5.28;;;4.78;;
46875;SDS011;32866;50.160;14.768;2024-02-15T15:02:44;3.97;;;3.67;;
46875;SDS011;32866;50.160;14.768;2024-02-15T15:05:12;3.17;;;3.08;;
46875;SDS011;32866;50.160;14.768;2024-02-15T15:07:57;3.78;;;3.58;;
46875;SDS011;32866;50.160;14.768;2024-02-15T15:10:44;5.03;;;4.72;;
46875;SDS011;32866;50.160;14.768;2024-02-15T15:13:30;6.63;;;5.63;;
46875;SDS011;32866;50.160;14.768;2024-02-15T15:15:57;3.90;;;3.70;;
46875;SDS011;32866;50.160;14.768;2024-02-15T15:18:23;4.50;;;4.03;;
46875;SDS011;32866;50.160;14.768;2024-02-15T15:20:49;4.53;;;4.13;;
46875;SDS011;32866;50.160;14.768;2024-02-15T15:23:15;4.60;;;4.30;;